sensor_id;sensor_type;location;lat;lon;timestamp;pressure;altitude;pressure_sealevel;temperature;humidity
26807;BME280;14380;49.910;6.792;2023-04-26T00:01:19;99019.22;;;2.79;100.00
26807;BME280;14380;49.910;6.792;2023-04-26T00:03:46;99031.31;;;2.83;100.00
26807;BME280;14380;49.910;6.792;2023-04-26T00:06:12;99030.84;;;2.59;100.00
26807;BME280;14380;49.910;6.792;2023-04-26T00:08:40;99018.44;;;2.72;100.00
26807;BME280;14380;49.910;6.792;2023-04-26T00:11:08;99022.16;;;2.60;100.00
26807;BME280;14380;49.910;6.792;2023-04-26T00:13:35;99024.91;;;2.51;100.00
26807;BME280;14380;49.910;6.792;2023-04-26T00:16:03;99029.25;;;2.53;100.00
26807;BME280;14380;49.910;6.792;2023-04-26T00:18:30;99025.75;;;2.53;100.00
26807;BME280;14380;49.910;6.792;2023-04-26T00:20:56;99019.38;;;2.68;100.00
26807;BME280;14380;49.910;6.792;2023-04-26T00:23:23;99022.97;;;2.62;100.00
26807;BME280;14380;49.910;6.792;2023-04-26T00:25:50;99028.25;;;2.59;100.00
26807;BME280;14380;49.910;6.792;2023-04-26T00:28:18;99030.31;;;2.42;100.00
26807;BME280;14380;49.910;6.792;2023-04-26T00:30:44;99031.28;;;2.36;100.00
26807;BME280;14380;49.910;6.792;2023-04-26T00:33:13;99035.69;;;2.32;100.00
26807;BME280;14380;49.910;6.792;2023-04-26T00:35:40;99029.53;;;2.36;100.00
26807;BME280;14380;49.910;6.792;2023-04-26T00:38:06;99023.59;;;2.27;100.00
26807;BME280;14380;49.910;6.792;2023-04-26T00:40:33;99023.88;;;2.11;100.00
26807;BME280;14380;49.910;6.792;2023-04-26T00:43:01;99018.53;;;2.20;100.00
26807;BME280;14380;49.910;6.792;2023-04-26T00:45:29;99021.25;;;2.13;100.00
26807;BME280;14380;49.910;6.792;2023-04-26T00:47:57;99023.69;;;2.22;100.00
26807;BME280;14380;49.910;6.792;2023-04-26T00:50:24;99019.28;;;2.26;100.00
26807;BME280;14380;49.910;6.792;2023-04-26T00:52:50;99022.81;;;2.21;100.00
26807;BME280;14380;49.910;6.792;2023-04-26T00:55:19;99022.13;;;2.13;100.00
26807;BME280;14380;49.910;6.792;2023-04-26T00:57:47;99016.13;;;2.06;100.00
26807;BME280;14380;49.910;6.792;2023-04-26T01:00:14;99008.31;;;2.08;100.00
26807;BME280;14380;49.910;6.792;2023-04-26T01:02:42;99022.19;;;2.08;100.00
26807;BME280;14380;49.910;6.792;2023-04-26T01:05:09;99017.91;;;2.04;100.00
26807;BME280;14380;49.910;6.792;2023-04-26T01:07:36;99019.56;;;2.10;100.00
26807;BME280;14380;49.910;6.792;2023-04-26T01:10:04;99022.28;;;2.02;100.00
26807;BME280;14380;49.910;6.792;2023-04-26T01:12:31;99017.09;;;2.01;100.00
26807;BME280;14380;49.910;6.792;2023-04-26T01:14:58;99021.34;;;2.06;100.00
26807;BME280;14380;49.910;6.792;2023-04-26T01:17:25;99019.63;;;2.05;100.00
26807;BME280;14380;49.910;6.792;2023-04-26T01:19:53;99019.66;;;2.04;100.00
26807;BME280;14380;49.910;6.792;2023-04-26T01:22:20;99015.56;;;1.87;100.00
26807;BME280;14380;49.910;6.792;2023-04-26T01:24:50;99015.38;;;2.00;100.00
26807;BME280;14380;49.910;6.792;2023-04-26T01:27:16;99013.75;;;1.94;100.00
26807;BME280;14380;49.910;6.792;2023-04-26T01:29:43;99018.25;;;1.83;100.00
26807;BME280;14380;49.910;6.792;2023-04-26T01:32:10;99017.44;;;1.79;100.00
26807;BME280;14380;49.910;6.792;2023-04-26T01:34:37;99019.09;;;1.83;100.00
26807;BME280;14380;49.910;6.792;2023-04-26T01:37:03;99019.94;;;1.87;100.00
26807;BME280;14380;49.910;6.792;2023-04-26T01:39:32;99011.41;;;1.75;100.00
26807;BME280;14380;49.910;6.792;2023-04-26T01:42:00;99007.13;;;1.71;100.00
26807;BME280;14380;49.910;6.792;2023-04-26T01:44:27;99010.56;;;1.75;100.00
26807;BME280;14380;49.910;6.792;2023-04-26T01:46:53;98999.94;;;1.87;100.00
26807;BME280;14380;49.910;6.792;2023-04-26T01:49:20;99002.69;;;1.80;100.00
26807;BME280;14380;49.910;6.792;2023-04-26T01:51:47;99004.63;;;1.67;100.00
26807;BME280;14380;49.910;6.792;2023-04-26T01:54:13;99007.06;;;1.77;100.00
26807;BME280;14380;49.910;6.792;2023-04-26T01:56:40;99012.22;;;1.79;100.00
26807;BME280;14380;49.910;6.792;2023-04-26T01:59:08;99014.94;;;1.71;100.00
26807;BME280;14380;49.910;6.792;2023-04-26T02:01:35;99009.66;;;1.77;100.00
26807;BME280;14380;49.910;6.792;2023-04-26T02:04:01;99017.53;;;1.73;100.00
26807;BME280;14380;49.910;6.792;2023-04-26T02:06:28;99014.06;;;1.74;100.00
26807;BME280;14380;49.910;6.792;2023-04-26T02:08:55;99011.75;;;1.54;100.00
26807;BME280;14380;49.910;6.792;2023-04-26T02:11:22;99020.28;;;1.62;100.00
26807;BME280;14380;49.910;6.792;2023-04-26T02:13:49;99009.78;;;1.68;100.00
26807;BME280;14380;49.910;6.792;2023-04-26T02:16:16;99015.69;;;1.78;100.00
26807;BME280;14380;49.910;6.792;2023-04-26T02:18:43;99009.16;;;1.52;100.00
26807;BME280;14380;49.910;6.792;2023-04-26T02:21:10;99014.25;;;1.61;100.00
26807;BME280;14380;49.910;6.792;2023-04-26T02:23:36;99022.00;;;1.63;100.00
26807;BME280;14380;49.910;6.792;2023-04-26T02:26:03;99015.00;;;1.68;100.00
26807;BME280;14380;49.910;6.792;2023-04-26T02:28:30;99015.31;;;1.45;100.00
26807;BME280;14380;49.910;6.792;2023-04-26T02:30:57;99014.69;;;1.29;100.00
26807;BME280;14380;49.910;6.792;2023-04-26T02:33:25;99015.41;;;1.40;100.00
26807;BME280;14380;49.910;6.792;2023-04-26T02:35:51;99018.09;;;1.34;100.00
26807;BME280;14380;49.910;6.792;2023-04-26T02:38:18;99017.31;;;1.27;100.00
26807;BME280;14380;49.910;6.792;2023-04-26T02:40:45;99014.69;;;1.29;100.00
26807;BME280;14380;49.910;6.792;2023-04-26T02:43:11;99011.25;;;1.27;100.00
26807;BME280;14380;49.910;6.792;2023-04-26T02:45:40;99004.91;;;1.46;100.00
26807;BME280;14380;49.910;6.792;2023-04-26T02:48:07;99011.16;;;1.33;100.00
26807;BME280;14380;49.910;6.792;2023-04-26T02:50:35;99014.53;;;1.41;100.00
26807;BME280;14380;49.910;6.792;2023-04-26T02:53:01;99014.59;;;1.35;100.00
26807;BME280;14380;49.910;6.792;2023-04-26T02:55:29;99014.53;;;1.41;100.00
26807;BME280;14380;49.910;6.792;2023-04-26T02:57:55;99010.28;;;1.34;100.00
26807;BME280;14380;49.910;6.792;2023-04-26T03:00:22;99003.25;;;1.41;100.00
26807;BME280;14380;49.910;6.792;2023-04-26T03:02:49;99005.88;;;1.38;100.00
26807;BME280;14380;49.910;6.792;2023-04-26T03:05:16;99009.44;;;1.32;100.00
26807;BME280;14380;49.910;6.792;2023-04-26T03:07:44;99004.19;;;1.35;100.00
26807;BME280;14380;49.910;6.792;2023-04-26T03:10:10;99000.91;;;1.22;100.00
26807;BME280;14380;49.910;6.792;2023-04-26T03:12:37;98998.22;;;1.28;100.00
26807;BME280;14380;49.910;6.792;2023-04-26T03:15:04;98989.66;;;1.18;100.00
26807;BME280;14380;49.910;6.792;2023-04-26T03:17:31;98985.34;;;1.17;100.00
26807;BME280;14380;49.910;6.792;2023-04-26T03:19:57;98982.63;;;1.28;100.00
26807;BME280;14380;49.910;6.792;2023-04-26T03:22:24;98976.72;;;1.15;100.00
26807;BME280;14380;49.910;6.792;2023-04-26T03:24:52;98976.59;;;1.26;100.00
26807;BME280;14380;49.910;6.792;2023-04-26T03:27:18;98981.22;;;1.04;100.00
26807;BME280;14380;49.910;6.792;2023-04-26T03:29:45;98975.81;;;1.18;100.00
26807;BME280;14380;49.910;6.792;2023-04-26T03:32:11;98974.22;;;1.09;100.00
26807;BME280;14380;49.910;6.792;2023-04-26T03:34:38;98974.34;;;0.98;100.00
26807;BME280;14380;49.910;6.792;2023-04-26T03:37:05;98978.47;;;1.13;100.00
26807;BME280;14380;49.910;6.792;2023-04-26T03:39:32;98985.50;;;1.07;100.00
26807;BME280;14380;49.910;6.792;2023-04-26T03:41:59;98990.69;;;1.08;100.00
26807;BME280;14380;49.910;6.792;2023-04-26T03:44:28;98988.97;;;1.07;100.00
26807;BME280;14380;49.910;6.792;2023-04-26T03:46:54;98989.97;;;0.97;100.00
26807;BME280;14380;49.910;6.792;2023-04-26T03:49:21;98992.69;;;0.86;100.00
26807;BME280;14380;49.910;6.792;2023-04-26T03:51:48;98997.97;;;0.80;100.00
26807;BME280;14380;49.910;6.792;2023-04-26T03:54:14;98998.75;;;0.86;100.00
26807;BME280;14380;49.910;6.792;2023-04-26T03:56:41;98999.59;;;0.88;100.00
26807;BME280;14380;49.910;6.792;2023-04-26T03:59:09;99002.94;;;0.98;100.00
26807;BME280;14380;49.910;6.792;2023-04-26T04:01:35;98994.50;;;0.81;100.00
26807;BME280;14380;49.910;6.792;2023-04-26T04:04:02;98993.84;;;0.60;100.00
26807;BME280;14380;49.910;6.792;2023-04-26T04:06:29;98992.03;;;0.68;100.00
26807;BME280;14380;49.910;6.792;2023-04-26T04:08:57;98994.50;;;0.79;100.00
26807;BME280;14380;49.910;6.792;2023-04-26T04:11:23;98990.25;;;0.72;100.00
26807;BME280;14380;49.910;6.792;2023-04-26T04:13:50;98988.75;;;0.52;100.00
26807;BME280;14380;49.910;6.792;2023-04-26T04:16:18;98988.63;;;0.65;100.00
26807;BME280;14380;49.910;6.792;2023-04-26T04:18:44;98994.09;;;0.37;100.00
26807;BME280;14380;49.910;6.792;2023-04-26T04:21:11;99001.66;;;0.58;100.00
26807;BME280;14380;49.910;6.792;2023-04-26T04:23:38;98999.03;;;0.62;100.00
26807;BME280;14380;49.910;6.792;2023-04-26T04:26:04;98997.22;;;0.68;100.00
26807;BME280;14380;49.910;6.792;2023-04-26T04:28:31;98996.41;;;0.65;100.00
26807;BME280;14380;49.910;6.792;2023-04-26T04:30:58;98998.16;;;0.61;100.00
26807;BME280;14380;49.910;6.792;2023-04-26T04:33:26;98996.47;;;0.58;100.00
26807;BME280;14380;49.910;6.792;2023-04-26T04:35:53;98994.06;;;0.41;100.00
26807;BME280;14380;49.910;6.792;2023-04-26T04:38:20;98999.03;;;0.62;100.00
26807;BME280;14380;49.910;6.792;2023-04-26T04:40:47;99001.69;;;0.55;100.00
26807;BME280;14380;49.910;6.792;2023-04-26T04:43:15;99010.34;;;0.57;100.00
26807;BME280;14380;49.910;6.792;2023-04-26T04:45:42;99010.06;;;0.82;100.00
26807;BME280;14380;49.910;6.792;2023-04-26T04:48:08;99009.16;;;0.86;100.00
26807;BME280;14380;49.910;6.792;2023-04-26T04:50:37;99009.19;;;0.83;100.00
26807;BME280;14380;49.910;6.792;2023-04-26T04:53:03;99009.78;;;1.06;100.00
26807;BME280;14380;49.910;6.792;2023-04-26T04:55:30;99016.69;;;1.07;100.00
26807;BME280;14380;49.910;6.792;2023-04-26T04:57:57;99017.63;;;1.04;100.00
26807;BME280;14380;49.910;6.792;2023-04-26T05:00:24;99012.34;;;1.09;100.00
26807;BME280;14380;49.910;6.792;2023-04-26T05:02:51;99005.00;;;1.40;100.00
26807;BME280;14380;49.910;6.792;2023-04-26T05:05:18;99010.53;;;1.76;100.00
26807;BME280;14380;49.910;6.792;2023-04-26T05:07:46;99005.88;;;1.97;100.00
26807;BME280;14380;49.910;6.792;2023-04-26T05:10:13;99013.53;;;2.08;100.00
26807;BME280;14380;49.910;6.792;2023-04-26T05:12:39;99014.06;;;1.72;100.00
26807;BME280;14380;49.910;6.792;2023-04-26T05:15:07;99027.25;;;2.18;100.00
26807;BME280;14380;49.910;6.792;2023-04-26T05:17:33;99035.41;;;2.48;100.00
26807;BME280;14380;49.910;6.792;2023-04-26T05:20:00;99030.06;;;2.56;100.00
26807;BME280;14380;49.910;6.792;2023-04-26T05:22:31;99038.25;;;2.34;100.00
26807;BME280;14380;49.910;6.792;2023-04-26T05:25:00;99039.38;;;2.20;100.00
26807;BME280;14380;49.910;6.792;2023-04-26T05:27:29;99037.41;;;2.33;100.00
26807;BME280;14380;49.910;6.792;2023-04-26T05:29:55;99045.03;;;2.44;100.00
26807;BME280;14380;49.910;6.792;2023-04-26T05:32:22;99039.06;;;2.86;100.00
26807;BME280;14380;49.910;6.792;2023-04-26T05:34:48;99038.56;;;3.09;100.00
26807;BME280;14380;49.910;6.792;2023-04-26T05:37:15;99034.78;;;3.67;100.00
26807;BME280;14380;49.910;6.792;2023-04-26T05:39:42;99036.13;;;3.83;100.00
26807;BME280;14380;49.910;6.792;2023-04-26T05:42:10;99037.00;;;3.82;100.00
26807;BME280;14380;49.910;6.792;2023-04-26T05:44:37;99035.72;;;4.00;100.00
26807;BME280;14380;49.910;6.792;2023-04-26T05:47:03;99034.84;;;4.36;100.00
26807;BME280;14380;49.910;6.792;2023-04-26T05:49:30;99038.06;;;5.12;100.00
26807;BME280;14380;49.910;6.792;2023-04-26T05:51:58;99033.66;;;5.14;100.00
26807;BME280;14380;49.910;6.792;2023-04-26T05:54:25;99034.00;;;5.02;98.04
26807;BME280;14380;49.910;6.792;2023-04-26T05:56:51;99026.69;;;5.43;98.12
26807;BME280;14380;49.910;6.792;2023-04-26T05:59:19;99033.41;;;5.22;97.72
26807;BME280;14380;49.910;6.792;2023-04-26T06:01:46;99031.59;;;5.83;96.76
26807;BME280;14380;49.910;6.792;2023-04-26T06:04:12;99033.94;;;5.63;100.00
26807;BME280;14380;49.910;6.792;2023-04-26T06:06:39;99035.84;;;4.98;98.84
26807;BME280;14380;49.910;6.792;2023-04-26T06:09:06;99038.53;;;4.95;98.77
26807;BME280;14380;49.910;6.792;2023-04-26T06:11:33;99044.50;;;5.00;100.00
26807;BME280;14380;49.910;6.792;2023-04-26T06:13:59;99048.31;;;4.88;100.00
26807;BME280;14380;49.910;6.792;2023-04-26T06:16:27;99043.28;;;4.81;100.00
26807;BME280;14380;49.910;6.792;2023-04-26T06:18:54;99049.81;;;4.97;100.00
26807;BME280;14380;49.910;6.792;2023-04-26T06:21:20;99054.44;;;4.87;100.00
26807;BME280;14380;49.910;6.792;2023-04-26T06:23:47;99046.03;;;4.76;100.00
26807;BME280;14380;49.910;6.792;2023-04-26T06:26:13;99047.63;;;4.82;100.00
26807;BME280;14380;49.910;6.792;2023-04-26T06:28:40;99047.75;;;5.09;100.00
26807;BME280;14380;49.910;6.792;2023-04-26T06:31:06;99050.94;;;5.20;100.00
26807;BME280;14380;49.910;6.792;2023-04-26T06:33:34;99053.38;;;5.26;100.00
26807;BME280;14380;49.910;6.792;2023-04-26T06:36:01;99043.41;;;5.39;100.00
26807;BME280;14380;49.910;6.792;2023-04-26T06:38:27;99039.09;;;5.66;100.00
26807;BME280;14380;49.910;6.792;2023-04-26T06:40:54;99040.34;;;6.12;100.00
26807;BME280;14380;49.910;6.792;2023-04-26T06:43:21;99042.41;;;6.29;100.00
26807;BME280;14380;49.910;6.792;2023-04-26T06:45:48;99048.03;;;6.43;100.00
26807;BME280;14380;49.910;6.792;2023-04-26T06:48:14;99046.50;;;6.88;99.82
26807;BME280;14380;49.910;6.792;2023-04-26T06:50:42;99042.91;;;6.65;100.00
26807;BME280;14380;49.910;6.792;2023-04-26T06:53:09;99041.25;;;6.37;100.00
26807;BME280;14380;49.910;6.792;2023-04-26T06:55:35;99030.28;;;6.77;100.00
26807;BME280;14380;49.910;6.792;2023-04-26T06:58:02;99031.03;;;6.80;95.93
26807;BME280;14380;49.910;6.792;2023-04-26T07:00:29;99039.75;;;7.06;95.67
26807;BME280;14380;49.910;6.792;2023-04-26T07:02:56;99040.66;;;7.29;97.80
26807;BME280;14380;49.910;6.792;2023-04-26T07:05:22;99033.81;;;7.25;99.62
26807;BME280;14380;49.910;6.792;2023-04-26T07:07:50;99039.63;;;7.33;94.95
26807;BME280;14380;49.910;6.792;2023-04-26T07:10:17;99033.06;;;7.45;93.82
26807;BME280;14380;49.910;6.792;2023-04-26T07:12:45;99047.50;;;7.33;93.00
26807;BME280;14380;49.910;6.792;2023-04-26T07:15:12;99044.38;;;7.23;94.70
26807;BME280;14380;49.910;6.792;2023-04-26T07:17:38;99037.88;;;7.34;95.13
26807;BME280;14380;49.910;6.792;2023-04-26T07:20:06;99024.94;;;7.73;97.25
26807;BME280;14380;49.910;6.792;2023-04-26T07:22:33;99021.03;;;8.06;93.08
26807;BME280;14380;49.910;6.792;2023-04-26T07:25:01;99031.38;;;8.54;95.02
26807;BME280;14380;49.910;6.792;2023-04-26T07:27:29;99024.59;;;8.48;91.52
26807;BME280;14380;49.910;6.792;2023-04-26T07:29:56;99025.63;;;8.44;92.05
26807;BME280;14380;49.910;6.792;2023-04-26T07:32:22;99024.59;;;8.69;90.54
26807;BME280;14380;49.910;6.792;2023-04-26T07:34:49;99020.44;;;8.84;88.72
26807;BME280;14380;49.910;6.792;2023-04-26T07:37:16;99024.59;;;8.89;90.71
26807;BME280;14380;49.910;6.792;2023-04-26T07:39:42;99030.44;;;8.96;91.58
26807;BME280;14380;49.910;6.792;2023-04-26T07:42:10;99020.53;;;9.22;82.61
26807;BME280;14380;49.910;6.792;2023-04-26T07:44:37;99025.22;;;9.15;88.55
26807;BME280;14380;49.910;6.792;2023-04-26T07:47:03;99023.03;;;9.25;85.58
26807;BME280;14380;49.910;6.792;2023-04-26T07:49:30;99024.56;;;9.10;84.22
26807;BME280;14380;49.910;6.792;2023-04-26T07:51:56;99027.31;;;8.67;85.58
26807;BME280;14380;49.910;6.792;2023-04-26T07:54:26;99024.03;;;8.83;88.88
26807;BME280;14380;49.910;6.792;2023-04-26T07:56:52;99026.56;;;8.63;85.25
26807;BME280;14380;49.910;6.792;2023-04-26T07:59:21;99030.03;;;8.43;86.90
26807;BME280;14380;49.910;6.792;2023-04-26T08:01:47;99027.28;;;8.88;84.61
26807;BME280;14380;49.910;6.792;2023-04-26T08:04:14;99026.28;;;8.71;82.48
26807;BME280;14380;49.910;6.792;2023-04-26T08:06:41;99040.22;;;8.73;83.99
26807;BME280;14380;49.910;6.792;2023-04-26T08:09:09;99030.28;;;8.59;83.71
26807;BME280;14380;49.910;6.792;2023-04-26T08:11:36;99029.78;;;8.29;83.48
26807;BME280;14380;49.910;6.792;2023-04-26T08:14:02;99038.50;;;8.72;82.52
26807;BME280;14380;49.910;6.792;2023-04-26T08:16:30;99027.06;;;8.73;80.73
26807;BME280;14380;49.910;6.792;2023-04-26T08:18:57;99030.75;;;9.09;83.80
26807;BME280;14380;49.910;6.792;2023-04-26T08:21:26;99028.06;;;8.90;82.81
26807;BME280;14380;49.910;6.792;2023-04-26T08:23:53;99031.31;;;8.97;82.93
26807;BME280;14380;49.910;6.792;2023-04-26T08:26:20;99028.91;;;9.11;82.81
26807;BME280;14380;49.910;6.792;2023-04-26T08:28:46;99035.47;;;9.21;82.37
26807;BME280;14380;49.910;6.792;2023-04-26T08:31:13;99020.03;;;9.14;80.09
26807;BME280;14380;49.910;6.792;2023-04-26T08:33:41;99028.41;;;9.03;82.03
26807;BME280;14380;49.910;6.792;2023-04-26T08:36:08;99019.03;;;9.35;82.24
26807;BME280;14380;49.910;6.792;2023-04-26T08:38:34;99025.28;;;9.14;84.07
26807;BME280;14380;49.910;6.792;2023-04-26T08:41:02;99016.34;;;9.37;85.62
26807;BME280;14380;49.910;6.792;2023-04-26T08:43:29;99011.75;;;9.60;86.10
26807;BME280;14380;49.910;6.792;2023-04-26T08:48:40;99009.38;;;10.09;84.90
26807;BME280;14380;49.910;6.792;2023-04-26T08:51:08;99013.16;;;9.86;85.17
26807;BME280;14380;49.910;6.792;2023-04-26T08:53:38;99012.56;;;9.99;80.99
26807;BME280;14380;49.910;6.792;2023-04-26T08:56:07;99007.19;;;10.00;84.11
26807;BME280;14380;49.910;6.792;2023-04-26T08:58:36;99020.16;;;10.41;77.56
26807;BME280;14380;49.910;6.792;2023-04-26T09:01:04;99008.66;;;10.78;74.65
26807;BME280;14380;49.910;6.792;2023-04-26T09:03:32;99021.69;;;10.28;69.07
26807;BME280;14380;49.910;6.792;2023-04-26T09:06:00;99013.69;;;10.65;70.61
26807;BME280;14380;49.910;6.792;2023-04-26T09:08:27;99003.22;;;10.81;71.50
26807;BME280;14380;49.910;6.792;2023-04-26T09:10:54;98993.06;;;10.55;72.21
26807;BME280;14380;49.910;6.792;2023-04-26T09:13:26;98998.19;;;10.59;70.30
26807;BME280;14380;49.910;6.792;2023-04-26T09:15:53;98992.72;;;11.29;72.39
26807;BME280;14380;49.910;6.792;2023-04-26T09:18:21;98985.41;;;11.50;70.11
26807;BME280;14380;49.910;6.792;2023-04-26T09:21:03;98995.38;;;11.45;72.73
26807;BME280;14380;49.910;6.792;2023-04-26T09:23:30;98998.03;;;11.61;72.50
26807;BME280;14380;49.910;6.792;2023-04-26T09:26:15;98991.75;;;10.98;69.19
26807;BME280;14380;49.910;6.792;2023-04-26T09:28:42;98989.63;;;11.05;66.94
26807;BME280;14380;49.910;6.792;2023-04-26T09:31:10;98990.13;;;10.95;69.62
26807;BME280;14380;49.910;6.792;2023-04-26T09:33:56;98993.38;;;11.00;68.94
26807;BME280;14380;49.910;6.792;2023-04-26T09:36:24;98984.94;;;11.10;69.63
26807;BME280;14380;49.910;6.792;2023-04-26T09:38:51;98980.19;;;11.16;68.89
26807;BME280;14380;49.910;6.792;2023-04-26T09:41:18;98982.44;;;10.91;68.89
26807;BME280;14380;49.910;6.792;2023-04-26T09:43:48;98974.03;;;12.12;70.38
26807;BME280;14380;49.910;6.792;2023-04-26T09:46:21;98976.81;;;11.63;66.04
26807;BME280;14380;49.910;6.792;2023-04-26T09:48:59;98980.88;;;11.68;69.77
26807;BME280;14380;49.910;6.792;2023-04-26T09:51:27;98976.53;;;11.35;71.00
26807;BME280;14380;49.910;6.792;2023-04-26T09:53:54;98980.44;;;11.12;69.18
26807;BME280;14380;49.910;6.792;2023-04-26T09:56:20;98986.31;;;11.01;64.82
26807;BME280;14380;49.910;6.792;2023-04-26T09:58:58;98988.38;;;11.12;66.53
26807;BME280;14380;49.910;6.792;2023-04-26T10:01:27;98980.00;;;11.20;65.30
26807;BME280;14380;49.910;6.792;2023-04-26T10:03:54;98971.50;;;11.30;67.47
26807;BME280;14380;49.910;6.792;2023-04-26T10:06:21;98964.56;;;11.92;68.55
26807;BME280;14380;49.910;6.792;2023-04-26T10:08:49;98960.94;;;11.63;66.87
26807;BME280;14380;49.910;6.792;2023-04-26T10:11:16;98953.25;;;11.42;65.93
26807;BME280;14380;49.910;6.792;2023-04-26T10:13:43;98963.22;;;11.37;67.06
26807;BME280;14380;49.910;6.792;2023-04-26T10:16:10;98957.09;;;11.52;69.38
26807;BME280;14380;49.910;6.792;2023-04-26T10:18:37;98951.22;;;12.10;66.40
26807;BME280;14380;49.910;6.792;2023-04-26T10:21:06;98946.97;;;12.67;66.52
26807;BME280;14380;49.910;6.792;2023-04-26T10:23:35;98947.53;;;11.66;64.39
26807;BME280;14380;49.910;6.792;2023-04-26T10:26:04;98934.78;;;12.49;62.82
26807;BME280;14380;49.910;6.792;2023-04-26T10:28:53;98931.97;;;12.37;64.47
26807;BME280;14380;49.910;6.792;2023-04-26T10:31:21;98938.22;;;12.21;64.44
26807;BME280;14380;49.910;6.792;2023-04-26T10:34:17;98933.56;;;12.70;65.38
26807;BME280;14380;49.910;6.792;2023-04-26T10:37:12;98937.50;;;12.91;63.92
26807;BME280;14380;49.910;6.792;2023-04-26T10:39:39;98932.50;;;13.01;64.48
26807;BME280;14380;49.910;6.792;2023-04-26T10:42:24;98928.44;;;12.67;62.43
26807;BME280;14380;49.910;6.792;2023-04-26T10:44:51;98921.22;;;13.12;61.61
26807;BME280;14380;49.910;6.792;2023-04-26T10:47:24;98920.03;;;12.89;61.33
26807;BME280;14380;49.910;6.792;2023-04-26T10:49:51;98916.75;;;13.13;61.72
26807;BME280;14380;49.910;6.792;2023-04-26T10:52:18;98915.47;;;12.62;60.93
26807;BME280;14380;49.910;6.792;2023-04-26T10:54:52;98912.63;;;12.94;60.87
26807;BME280;14380;49.910;6.792;2023-04-26T10:57:20;98917.91;;;12.65;58.70
26807;BME280;14380;49.910;6.792;2023-04-26T11:00:24;98906.25;;;13.11;59.75
26807;BME280;14380;49.910;6.792;2023-04-26T11:03:01;98903.16;;;13.74;59.60
26807;BME280;14380;49.910;6.792;2023-04-26T11:08:26;98888.91;;;14.02;59.61
26807;BME280;14380;49.910;6.792;2023-04-26T11:11:04;98884.78;;;14.11;56.35
26807;BME280;14380;49.910;6.792;2023-04-26T11:13:34;98884.06;;;14.48;58.81
26807;BME280;14380;49.910;6.792;2023-04-26T11:16:04;98890.19;;;14.22;59.12
26807;BME280;14380;49.910;6.792;2023-04-26T11:18:31;98887.13;;;14.28;56.68
26807;BME280;14380;49.910;6.792;2023-04-26T11:20:58;98878.97;;;13.23;58.56
26807;BME280;14380;49.910;6.792;2023-04-26T11:23:27;98881.78;;;14.03;57.77
26807;BME280;14380;49.910;6.792;2023-04-26T11:25:56;98884.22;;;13.38;56.10
26807;BME280;14380;49.910;6.792;2023-04-26T11:28:23;98884.75;;;13.58;55.19
26807;BME280;14380;49.910;6.792;2023-04-26T11:30:49;98885.31;;;13.21;56.70
26807;BME280;14380;49.910;6.792;2023-04-26T11:33:19;98875.31;;;13.39;58.54
26807;BME280;14380;49.910;6.792;2023-04-26T11:35:47;98874.09;;;13.03;57.49
26807;BME280;14380;49.910;6.792;2023-04-26T11:38:14;98874.75;;;13.34;58.53
26807;BME280;14380;49.910;6.792;2023-04-26T11:40:42;98877.28;;;13.22;57.94
26807;BME280;14380;49.910;6.792;2023-04-26T11:43:09;98870.81;;;13.81;61.02
26807;BME280;14380;49.910;6.792;2023-04-26T11:45:38;98871.84;;;13.66;58.74
26807;BME280;14380;49.910;6.792;2023-04-26T11:48:06;98874.66;;;13.08;59.06
26807;BME280;14380;49.910;6.792;2023-04-26T11:50:36;98869.25;;;13.51;58.99
26807;BME280;14380;49.910;6.792;2023-04-26T11:53:05;98865.09;;;14.01;59.87
26807;BME280;14380;49.910;6.792;2023-04-26T11:55:33;98865.72;;;13.91;57.54
26807;BME280;14380;49.910;6.792;2023-04-26T11:58:00;98875.34;;;13.79;57.24
26807;BME280;14380;49.910;6.792;2023-04-26T12:00:28;98868.72;;;13.59;56.85
26807;BME280;14380;49.910;6.792;2023-04-26T12:02:54;98867.00;;;13.98;59.52
26807;BME280;14380;49.910;6.792;2023-04-26T12:05:23;98867.41;;;13.92;56.30
26807;BME280;14380;49.910;6.792;2023-04-26T12:07:52;98862.69;;;14.36;59.36
26807;BME280;14380;49.910;6.792;2023-04-26T12:10:23;98867.47;;;14.18;57.42
26807;BME280;14380;49.910;6.792;2023-04-26T12:12:50;98858.50;;;13.93;56.12
26807;BME280;14380;49.910;6.792;2023-04-26T12:15:18;98865.09;;;14.01;58.48
26807;BME280;14380;49.910;6.792;2023-04-26T12:17:54;98866.81;;;13.61;55.80
26807;BME280;14380;49.910;6.792;2023-04-26T12:20:28;98860.88;;;13.58;56.55
26807;BME280;14380;49.910;6.792;2023-04-26T12:23:04;98863.00;;;13.52;56.22
26807;BME280;14380;49.910;6.792;2023-04-26T12:25:32;98857.47;;;13.96;55.68
26807;BME280;14380;49.910;6.792;2023-04-26T12:27:59;98857.25;;;14.12;58.34
26807;BME280;14380;49.910;6.792;2023-04-26T12:30:27;98866.03;;;13.87;56.85
26807;BME280;14380;49.910;6.792;2023-04-26T12:32:54;98860.25;;;14.20;59.42
26807;BME280;14380;49.910;6.792;2023-04-26T12:35:22;98858.13;;;14.12;57.55
26807;BME280;14380;49.910;6.792;2023-04-26T12:37:49;98867.25;;;14.08;55.47
26807;BME280;14380;49.910;6.792;2023-04-26T12:40:19;98856.72;;;14.58;55.30
26807;BME280;14380;49.910;6.792;2023-04-26T12:42:47;98870.97;;;14.70;55.93
26807;BME280;14380;49.910;6.792;2023-04-26T12:45:16;98862.78;;;14.22;54.34
26807;BME280;14380;49.910;6.792;2023-04-26T12:47:43;98860.78;;;14.38;57.24
26807;BME280;14380;49.910;6.792;2023-04-26T12:50:10;98853.84;;;14.36;55.69
26807;BME280;14380;49.910;6.792;2023-04-26T12:52:38;98858.63;;;14.56;57.21
26807;BME280;14380;49.910;6.792;2023-04-26T12:55:06;98854.94;;;15.09;57.97
26807;BME280;14380;49.910;6.792;2023-04-26T12:57:34;98861.59;;;14.91;56.69
26807;BME280;14380;49.910;6.792;2023-04-26T13:00:01;98862.22;;;14.68;56.24
26807;BME280;14380;49.910;6.792;2023-04-26T13:02:28;98867.03;;;14.37;56.28
26807;BME280;14380;49.910;6.792;2023-04-26T13:04:55;98859.34;;;14.97;57.60
26807;BME280;14380;49.910;6.792;2023-04-26T13:07:22;98868.81;;;13.85;54.88
26807;BME280;14380;49.910;6.792;2023-04-26T13:09:49;98862.78;;;14.74;56.68
26807;BME280;14380;49.910;6.792;2023-04-26T13:12:15;98860.22;;;14.46;55.44